sensor_id;sensor_type;location;lat;lon;timestamp;pressure;altitude;pressure_sealevel;temperature;humidity
59110;BME280;44895;47.438;18.978;2022-11-09T00:02:47;100593.75;;;8.71;100.00
59110;BME280;44895;47.438;18.978;2022-11-09T00:05:55;100600.50;;;8.53;100.00
59110;BME280;44895;47.438;18.978;2022-11-09T00:09:18;100589.41;;;8.55;100.00
59110;BME280;44895;47.438;18.978;2022-11-09T00:12:22;100595.13;;;8.69;100.00
59110;BME280;44895;47.438;18.978;2022-11-09T00:15:26;100592.94;;;8.50;100.00
59110;BME280;44895;47.438;18.978;2022-11-09T00:18:30;100592.94;;;8.60;100.00
59110;BME280;44895;47.438;18.978;2022-11-09T00:21:33;100586.34;;;8.36;100.00
59110;BME280;44895;47.438;18.978;2022-11-09T00:24:37;100573.66;;;8.41;100.00
59110;BME280;44895;47.438;18.978;2022-11-09T00:27:41;100581.84;;;8.57;100.00
59110;BME280;44895;47.438;18.978;2022-11-09T00:30:44;100591.56;;;8.47;100.00
59110;BME280;44895;47.438;18.978;2022-11-09T00:33:50;100592.84;;;8.40;100.00
59110;BME280;44895;47.438;18.978;2022-11-09T00:36:53;100602.84;;;8.29;100.00
59110;BME280;44895;47.438;18.978;2022-11-09T00:39:57;100607.22;;;8.45;100.00
59110;BME280;44895;47.438;18.978;2022-11-09T00:43:04;100589.16;;;8.61;100.00
59110;BME280;44895;47.438;18.978;2022-11-09T00:46:08;100591.03;;;8.61;100.00
59110;BME280;44895;47.438;18.978;2022-11-09T00:49:11;100585.09;;;8.59;100.00
59110;BME280;44895;47.438;18.978;2022-11-09T00:52:15;100578.28;;;8.51;100.00
59110;BME280;44895;47.438;18.978;2022-11-09T00:55:19;100577.72;;;8.44;100.00
59110;BME280;44895;47.438;18.978;2022-11-09T00:58:28;100585.53;;;8.30;100.00
59110;BME280;44895;47.438;18.978;2022-11-09T01:01:33;100585.81;;;8.39;100.00
59110;BME280;44895;47.438;18.978;2022-11-09T01:04:36;100582.28;;;8.33;100.00
59110;BME280;44895;47.438;18.978;2022-11-09T01:07:40;100590.94;;;8.30;100.00
59110;BME280;44895;47.438;18.978;2022-11-09T01:10:46;100579.94;;;8.62;100.00
59110;BME280;44895;47.438;18.978;2022-11-09T01:13:51;100580.63;;;8.27;100.00
59110;BME280;44895;47.438;18.978;2022-11-09T01:16:55;100580.66;;;8.37;100.00
59110;BME280;44895;47.438;18.978;2022-11-09T01:19:59;100575.31;;;8.47;100.00
59110;BME280;44895;47.438;18.978;2022-11-09T01:23:03;100575.69;;;8.03;100.00
59110;BME280;44895;47.438;18.978;2022-11-09T01:26:09;100568.66;;;8.02;100.00
59110;BME280;44895;47.438;18.978;2022-11-09T01:29:13;100570.50;;;7.91;100.00
59110;BME280;44895;47.438;18.978;2022-11-09T01:32:17;100573.25;;;8.07;100.00
59110;BME280;44895;47.438;18.978;2022-11-09T01:35:21;100573.03;;;8.13;100.00
59110;BME280;44895;47.438;18.978;2022-11-09T01:38:24;100581.13;;;8.08;100.00
59110;BME280;44895;47.438;18.978;2022-11-09T01:41:28;100574.69;;;8.25;100.00
59110;BME280;44895;47.438;18.978;2022-11-09T01:44:35;100569.75;;;8.11;100.00
59110;BME280;44895;47.438;18.978;2022-11-09T01:47:40;100572.41;;;7.96;100.00
59110;BME280;44895;47.438;18.978;2022-11-09T01:50:57;100569.00;;;8.26;100.00
59110;BME280;44895;47.438;18.978;2022-11-09T01:54:08;100563.22;;;7.97;100.00
59110;BME280;44895;47.438;18.978;2022-11-09T01:57:24;100560.28;;;8.04;100.00
59110;BME280;44895;47.438;18.978;2022-11-09T02:00:30;100561.56;;;7.91;100.00
59110;BME280;44895;47.438;18.978;2022-11-09T02:03:47;100554.06;;;8.08;100.00
59110;BME280;44895;47.438;18.978;2022-11-09T02:06:54;100560.84;;;8.11;100.00
59110;BME280;44895;47.438;18.978;2022-11-09T02:10:08;100564.00;;;7.87;100.00
59110;BME280;44895;47.438;18.978;2022-11-09T02:13:17;100557.53;;;7.93;100.00
59110;BME280;44895;47.438;18.978;2022-11-09T02:16:22;100549.16;;;7.95;100.00
59110;BME280;44895;47.438;18.978;2022-11-09T02:19:26;100544.81;;;7.94;100.00
59110;BME280;44895;47.438;18.978;2022-11-09T02:22:30;100553.16;;;7.87;100.00
59110;BME280;44895;47.438;18.978;2022-11-09T02:25:35;100547.69;;;7.72;100.00
59110;BME280;44895;47.438;18.978;2022-11-09T02:28:39;100546.09;;;7.81;100.00
59110;BME280;44895;47.438;18.978;2022-11-09T02:31:51;100544.69;;;7.63;100.00
59110;BME280;44895;47.438;18.978;2022-11-09T02:34:56;100536.19;;;7.97;100.00
59110;BME280;44895;47.438;18.978;2022-11-09T02:38:00;100542.91;;;7.89;100.00
59110;BME280;44895;47.438;18.978;2022-11-09T02:41:04;100545.56;;;7.84;100.00
59110;BME280;44895;47.438;18.978;2022-11-09T02:44:08;100542.66;;;7.91;100.00
59110;BME280;44895;47.438;18.978;2022-11-09T02:47:12;100541.59;;;8.02;100.00
59110;BME280;44895;47.438;18.978;2022-11-09T02:50:17;100539.34;;;7.78;100.00
59110;BME280;44895;47.438;18.978;2022-11-09T02:53:21;100534.31;;;7.49;100.00
59110;BME280;44895;47.438;18.978;2022-11-09T02:56:25;100537.00;;;7.44;100.00
59110;BME280;44895;47.438;18.978;2022-11-09T02:59:29;100533.84;;;7.58;100.00
59110;BME280;44895;47.438;18.978;2022-11-09T03:02:34;100539.81;;;7.65;100.00
59110;BME280;44895;47.438;18.978;2022-11-09T03:05:38;100533.53;;;7.49;100.00
59110;BME280;44895;47.438;18.978;2022-11-09T03:08:42;100526.72;;;7.41;100.00
59110;BME280;44895;47.438;18.978;2022-11-09T03:11:47;100527.41;;;7.69;100.00
59110;BME280;44895;47.438;18.978;2022-11-09T03:14:53;100541.25;;;7.83;100.00
59110;BME280;44895;47.438;18.978;2022-11-09T03:17:56;100545.63;;;7.94;100.00
59110;BME280;44895;47.438;18.978;2022-11-09T03:21:02;100544.06;;;8.09;100.00
59110;BME280;44895;47.438;18.978;2022-11-09T03:24:07;100537.19;;;7.80;100.00
59110;BME280;44895;47.438;18.978;2022-11-09T03:27:13;100545.38;;;7.96;100.00
59110;BME280;44895;47.438;18.978;2022-11-09T03:30:18;100540.69;;;7.76;100.00
59110;BME280;44895;47.438;18.978;2022-11-09T03:33:22;100540.72;;;7.86;100.00
59110;BME280;44895;47.438;18.978;2022-11-09T03:36:25;100533.53;;;7.54;100.00
59110;BME280;44895;47.438;18.978;2022-11-09T03:39:29;100540.94;;;7.74;100.00
59110;BME280;44895;47.438;18.978;2022-11-09T03:42:33;100541.00;;;7.90;100.00
59110;BME280;44895;47.438;18.978;2022-11-09T03:45:37;100540.97;;;7.79;100.00
59110;BME280;44895;47.438;18.978;2022-11-09T03:48:41;100540.38;;;7.67;100.00
59110;BME280;44895;47.438;18.978;2022-11-09T03:51:44;100540.25;;;7.41;100.00
59110;BME280;44895;47.438;18.978;2022-11-09T03:54:48;100540.81;;;7.54;100.00
59110;BME280;44895;47.438;18.978;2022-11-09T03:57:52;100532.72;;;7.54;100.00
59110;BME280;44895;47.438;18.978;2022-11-09T04:00:56;100530.91;;;7.70;100.00
59110;BME280;44895;47.438;18.978;2022-11-09T04:03:59;100535.53;;;7.74;100.00
59110;BME280;44895;47.438;18.978;2022-11-09T04:07:03;100534.94;;;7.62;100.00
59110;BME280;44895;47.438;18.978;2022-11-09T04:10:07;100531.78;;;7.75;100.00
59110;BME280;44895;47.438;18.978;2022-11-09T04:13:11;100531.44;;;7.66;100.00
59110;BME280;44895;47.438;18.978;2022-11-09T04:16:15;100524.22;;;7.88;100.00
59110;BME280;44895;47.438;18.978;2022-11-09T04:19:19;100529.84;;;7.71;100.00
59110;BME280;44895;47.438;18.978;2022-11-09T04:22:23;100526.09;;;7.82;100.00
59110;BME280;44895;47.438;18.978;2022-11-09T04:25:28;100523.66;;;7.75;100.00
59110;BME280;44895;47.438;18.978;2022-11-09T04:28:34;100518.25;;;7.75;100.00
59110;BME280;44895;47.438;18.978;2022-11-09T04:31:38;100529.41;;;7.94;100.00
59110;BME280;44895;47.438;18.978;2022-11-09T04:34:41;100523.13;;;7.83;100.00
59110;BME280;44895;47.438;18.978;2022-11-09T04:38:12;100521.41;;;7.62;100.00
59110;BME280;44895;47.438;18.978;2022-11-09T04:41:16;100514.97;;;7.68;100.00
59110;BME280;44895;47.438;18.978;2022-11-09T04:44:20;100509.56;;;7.73;100.00
59110;BME280;44895;47.438;18.978;2022-11-09T04:47:24;100520.63;;;7.61;100.00
59110;BME280;44895;47.438;18.978;2022-11-09T04:50:28;100525.78;;;7.73;100.00
59110;BME280;44895;47.438;18.978;2022-11-09T04:53:33;100524.41;;;7.65;100.00
59110;BME280;44895;47.438;18.978;2022-11-09T04:56:37;100527.69;;;7.73;100.00
59110;BME280;44895;47.438;18.978;2022-11-09T04:59:41;100521.97;;;7.64;100.00
59110;BME280;44895;47.438;18.978;2022-11-09T05:02:45;100530.28;;;7.52;100.00
59110;BME280;44895;47.438;18.978;2022-11-09T05:05:49;100527.63;;;7.62;100.00
59110;BME280;44895;47.438;18.978;2022-11-09T05:08:54;100522.22;;;7.62;100.00
59110;BME280;44895;47.438;18.978;2022-11-09T05:11:57;100523.81;;;7.53;100.00
59110;BME280;44895;47.438;18.978;2022-11-09T05:15:01;100523.50;;;7.44;100.00
59110;BME280;44895;47.438;18.978;2022-11-09T05:18:05;100525.44;;;7.54;100.00
59110;BME280;44895;47.438;18.978;2022-11-09T05:21:09;100523.50;;;7.49;100.00
59110;BME280;44895;47.438;18.978;2022-11-09T05:24:13;100522.44;;;7.50;100.00
59110;BME280;44895;47.438;18.978;2022-11-09T05:27:17;100524.06;;;7.51;100.00
59110;BME280;44895;47.438;18.978;2022-11-09T05:30:20;100515.47;;;7.65;100.00
59110;BME280;44895;47.438;18.978;2022-11-09T05:33:24;100517.91;;;7.61;100.00
59110;BME280;44895;47.438;18.978;2022-11-09T05:36:29;100521.16;;;7.68;100.00
59110;BME280;44895;47.438;18.978;2022-11-09T05:39:33;100534.88;;;7.51;100.00
59110;BME280;44895;47.438;18.978;2022-11-09T05:42:40;100530.00;;;7.54;100.00
59110;BME280;44895;47.438;18.978;2022-11-09T05:45:44;100535.06;;;7.40;100.00
59110;BME280;44895;47.438;18.978;2022-11-09T05:48:49;100536.53;;;7.58;100.00
59110;BME280;44895;47.438;18.978;2022-11-09T05:51:52;100541.16;;;7.67;100.00
59110;BME280;44895;47.438;18.978;2022-11-09T05:54:56;100545.78;;;7.67;100.00
59110;BME280;44895;47.438;18.978;2022-11-09T05:58:00;100539.13;;;7.42;100.00
59110;BME280;44895;47.438;18.978;2022-11-09T06:01:05;100537.28;;;7.48;100.00
59110;BME280;44895;47.438;18.978;2022-11-09T06:04:09;100545.19;;;7.60;100.00
59110;BME280;44895;47.438;18.978;2022-11-09T06:07:13;100542.97;;;7.46;100.00
59110;BME280;44895;47.438;18.978;2022-11-09T06:10:17;100540.00;;;7.48;100.00
59110;BME280;44895;47.438;18.978;2022-11-09T06:13:21;100541.94;;;7.15;100.00
59110;BME280;44895;47.438;18.978;2022-11-09T06:16:24;100544.81;;;7.41;100.00
59110;BME280;44895;47.438;18.978;2022-11-09T06:19:28;100546.22;;;7.54;100.00
59110;BME280;44895;47.438;18.978;2022-11-09T06:22:32;100547.81;;;7.44;100.00
59110;BME280;44895;47.438;18.978;2022-11-09T06:25:36;100551.06;;;7.46;100.00
59110;BME280;44895;47.438;18.978;2022-11-09T06:28:40;100552.41;;;7.44;100.00
59110;BME280;44895;47.438;18.978;2022-11-09T06:31:45;100571.28;;;7.33;100.00
59110;BME280;44895;47.438;18.978;2022-11-09T06:34:51;100556.44;;;7.41;100.00
59110;BME280;44895;47.438;18.978;2022-11-09T06:37:59;100547.03;;;7.49;100.00
59110;BME280;44895;47.438;18.978;2022-11-09T06:41:03;100562.59;;;7.31;100.00
59110;BME280;44895;47.438;18.978;2022-11-09T06:44:06;100544.88;;;7.08;100.00
59110;BME280;44895;47.438;18.978;2022-11-09T06:47:11;100554.59;;;7.09;100.00
59110;BME280;44895;47.438;18.978;2022-11-09T06:50:14;100547.72;;;7.29;100.00
59110;BME280;44895;47.438;18.978;2022-11-09T06:53:18;100550.16;;;7.30;100.00
59110;BME280;44895;47.438;18.978;2022-11-09T06:56:22;100559.94;;;7.37;100.00
59110;BME280;44895;47.438;18.978;2022-11-09T06:59:26;100559.28;;;7.67;100.00
59110;BME280;44895;47.438;18.978;2022-11-09T07:02:32;100556.44;;;7.41;100.00
59110;BME280;44895;47.438;18.978;2022-11-09T07:05:37;100560.09;;;7.20;100.00
59110;BME280;44895;47.438;18.978;2022-11-09T07:08:42;100557.78;;;7.39;100.00
59110;BME280;44895;47.438;18.978;2022-11-09T07:11:47;100553.75;;;7.04;100.00
59110;BME280;44895;47.438;18.978;2022-11-09T07:14:52;100551.25;;;7.34;100.00
59110;BME280;44895;47.438;18.978;2022-11-09T07:17:57;100549.19;;;7.47;100.00
59110;BME280;44895;47.438;18.978;2022-11-09T07:21:03;100551.84;;;7.42;100.00
59110;BME280;44895;47.438;18.978;2022-11-09T07:24:07;100551.22;;;7.29;100.00
59110;BME280;44895;47.438;18.978;2022-11-09T07:27:11;100548.69;;;7.55;100.00
59110;BME280;44895;47.438;18.978;2022-11-09T07:30:15;100541.78;;;7.32;100.00
59110;BME280;44895;47.438;18.978;2022-11-09T07:33:20;100552.22;;;7.18;100.00
59110;BME280;44895;47.438;18.978;2022-11-09T07:36:24;100549.38;;;7.35;100.00
59110;BME280;44895;47.438;18.978;2022-11-09T07:39:28;100548.78;;;7.28;100.00
59110;BME280;44895;47.438;18.978;2022-11-09T07:42:32;100548.19;;;7.21;100.00
59110;BME280;44895;47.438;18.978;2022-11-09T07:45:36;100560.13;;;7.25;100.00
59110;BME280;44895;47.438;18.978;2022-11-09T07:48:41;100546.78;;;7.50;100.00
59110;BME280;44895;47.438;18.978;2022-11-09T07:51:45;100557.38;;;7.62;100.00
59110;BME280;44895;47.438;18.978;2022-11-09T07:54:48;100558.03;;;7.37;100.00
59110;BME280;44895;47.438;18.978;2022-11-09T07:58:21;100553.28;;;7.55;100.00
59110;BME280;44895;47.438;18.978;2022-11-09T08:01:23;100555.94;;;7.49;100.00
59110;BME280;44895;47.438;18.978;2022-11-09T08:04:27;100550.97;;;7.79;100.00
59110;BME280;44895;47.438;18.978;2022-11-09T08:07:31;100551.72;;;7.64;100.00
59110;BME280;44895;47.438;18.978;2022-11-09T08:10:36;100548.66;;;7.50;100.00
59110;BME280;44895;47.438;18.978;2022-11-09T08:13:40;100545.44;;;7.53;100.00
59110;BME280;44895;47.438;18.978;2022-11-09T08:16:44;100545.00;;;7.72;100.00
59110;BME280;44895;47.438;18.978;2022-11-09T08:19:48;100545.28;;;7.75;100.00
59110;BME280;44895;47.438;18.978;2022-11-09T08:22:52;100543.44;;;7.86;100.00
59110;BME280;44895;47.438;18.978;2022-11-09T08:25:56;100539.66;;;7.87;100.00
59110;BME280;44895;47.438;18.978;2022-11-09T08:28:59;100537.47;;;7.84;100.00
59110;BME280;44895;47.438;18.978;2022-11-09T08:32:03;100542.78;;;7.63;100.00
59110;BME280;44895;47.438;18.978;2022-11-09T08:35:08;100532.19;;;7.51;100.00
59110;BME280;44895;47.438;18.978;2022-11-09T08:38:12;100543.69;;;7.79;100.00
59110;BME280;44895;47.438;18.978;2022-11-09T08:41:16;100539.91;;;7.80;100.00
59110;BME280;44895;47.438;18.978;2022-11-09T08:44:20;100535.81;;;7.73;100.00
59110;BME280;44895;47.438;18.978;2022-11-09T08:47:25;100538.25;;;7.79;100.00
59110;BME280;44895;47.438;18.978;2022-11-09T08:50:30;100535.56;;;7.79;100.00
59110;BME280;44895;47.438;18.978;2022-11-09T08:53:34;100535.75;;;7.67;100.00
59110;BME280;44895;47.438;18.978;2022-11-09T08:56:38;100546.97;;;7.87;100.00
59110;BME280;44895;47.438;18.978;2022-11-09T08:59:42;100539.97;;;8.01;100.00
59110;BME280;44895;47.438;18.978;2022-11-09T09:02:46;100543.41;;;7.81;100.00
59110;BME280;44895;47.438;18.978;2022-11-09T09:05:50;100540.38;;;7.72;100.00
59110;BME280;44895;47.438;18.978;2022-11-09T09:08:54;100545.06;;;7.92;100.00
59110;BME280;44895;47.438;18.978;2022-11-09T09:11:58;100546.19;;;8.07;100.00
59110;BME280;44895;47.438;18.978;2022-11-09T09:15:02;100543.47;;;8.02;100.00
59110;BME280;44895;47.438;18.978;2022-11-09T09:18:06;100546.44;;;7.95;100.00
59110;BME280;44895;47.438;18.978;2022-11-09T09:21:09;100537.28;;;8.06;100.00
59110;BME280;44895;47.438;18.978;2022-11-09T09:24:13;100545.41;;;8.11;100.00
59110;BME280;44895;47.438;18.978;2022-11-09T09:27:17;100544.91;;;8.14;100.00
59110;BME280;44895;47.438;18.978;2022-11-09T09:30:21;100534.59;;;8.11;100.00
59110;BME280;44895;47.438;18.978;2022-11-09T09:33:25;100537.91;;;8.34;100.00
59110;BME280;44895;47.438;18.978;2022-11-09T09:36:29;100538.34;;;8.00;100.00
59110;BME280;44895;47.438;18.978;2022-11-09T09:39:33;100535.16;;;8.19;100.00
59110;BME280;44895;47.438;18.978;2022-11-09T09:42:41;100532.19;;;8.25;100.00
59110;BME280;44895;47.438;18.978;2022-11-09T09:45:50;100528.69;;;8.20;100.00
59110;BME280;44895;47.438;18.978;2022-11-09T09:49:17;100515.78;;;8.47;100.00
59110;BME280;44895;47.438;18.978;2022-11-09T09:55:52;100520.88;;;8.39;100.00
59110;BME280;44895;47.438;18.978;2022-11-09T09:59:34;100514.91;;;8.42;100.00
59110;BME280;44895;47.438;18.978;2022-11-09T10:02:41;100510.31;;;8.42;100.00
59110;BME280;44895;47.438;18.978;2022-11-09T10:06:03;100501.09;;;8.38;100.00
59110;BME280;44895;47.438;18.978;2022-11-09T10:16:15;100493.28;;;8.62;100.00
59110;BME280;44895;47.438;18.978;2022-11-09T10:19:34;100488.97;;;8.67;100.00
59110;BME280;44895;47.438;18.978;2022-11-09T10:26:04;100492.75;;;8.55;100.00
59110;BME280;44895;47.438;18.978;2022-11-09T10:29:41;100491.41;;;8.63;100.00
59110;BME280;44895;47.438;18.978;2022-11-09T10:32:47;100491.13;;;8.59;100.00
59110;BME280;44895;47.438;18.978;2022-11-09T10:35:55;100492.47;;;8.72;100.00
59110;BME280;44895;47.438;18.978;2022-11-09T10:39:00;100491.69;;;8.77;100.00
59110;BME280;44895;47.438;18.978;2022-11-09T10:42:22;100487.88;;;8.68;100.00
59110;BME280;44895;47.438;18.978;2022-11-09T10:45:45;100479.75;;;8.68;100.00
59110;BME280;44895;47.438;18.978;2022-11-09T10:49:20;100466.75;;;8.85;100.00
59110;BME280;44895;47.438;18.978;2022-11-09T10:52:43;100469.97;;;8.97;100.00
59110;BME280;44895;47.438;18.978;2022-11-09T10:56:17;100465.38;;;8.98;100.00
59110;BME280;44895;47.438;18.978;2022-11-09T10:59:50;100462.69;;;8.82;100.00
59110;BME280;44895;47.438;18.978;2022-11-09T11:03:16;100465.13;;;8.94;100.00
59110;BME280;44895;47.438;18.978;2022-11-09T11:06:39;100461.59;;;8.84;100.00
59110;BME280;44895;47.438;18.978;2022-11-09T11:10:31;100458.34;;;9.02;100.00
59110;BME280;44895;47.438;18.978;2022-11-09T11:14:19;100457.25;;;8.98;100.00
59110;BME280;44895;47.438;18.978;2022-11-09T11:17:44;100451.56;;;9.05;100.00
59110;BME280;44895;47.438;18.978;2022-11-09T11:21:15;100447.53;;;8.92;100.00
59110;BME280;44895;47.438;18.978;2022-11-09T11:24:54;100453.16;;;9.11;100.00
59110;BME280;44895;47.438;18.978;2022-11-09T11:28:22;100451.81;;;9.13;100.00
59110;BME280;44895;47.438;18.978;2022-11-09T11:31:45;100447.53;;;8.92;100.00
59110;BME280;44895;47.438;18.978;2022-11-09T11:42:43;100448.03;;;9.14;100.00
59110;BME280;44895;47.438;18.978;2022-11-09T11:45:51;100451.25;;;9.17;100.00
59110;BME280;44895;47.438;18.978;2022-11-09T11:49:30;100448.28;;;9.13;100.00
59110;BME280;44895;47.438;18.978;2022-11-09T11:56:37;100446.66;;;9.02;100.00
59110;BME280;44895;47.438;18.978;2022-11-09T12:03:45;100436.06;;;9.16;100.00
59110;BME280;44895;47.438;18.978;2022-11-09T12:36:15;100427.19;;;9.00;100.00
59110;BME280;44895;47.438;18.978;2022-11-09T12:39:59;100424.72;;;9.13;100.00
59110;BME280;44895;47.438;18.978;2022-11-09T12:43:33;100413.28;;;9.22;100.00
59110;BME280;44895;47.438;18.978;2022-11-09T12:47:02;100422.56;;;9.05;100.00
59110;BME280;44895;47.438;18.978;2022-11-09T12:50:26;100414.13;;;9.12;100.00
59110;BME280;44895;47.438;18.978;2022-11-09T12:53:50;100413.63;;;9.05;100.00
59110;BME280;44895;47.438;18.978;2022-11-09T12:57:21;100418.47;;;9.13;100.00
59110;BME280;44895;47.438;18.978;2022-11-09T13:00:45;100420.91;;;9.20;100.00
59110;BME280;44895;47.438;18.978;2022-11-09T13:04:15;100415.47;;;9.20;100.00
59110;BME280;44895;47.438;18.978;2022-11-09T13:07:47;100405.19;;;9.11;100.00
59110;BME280;44895;47.438;18.978;2022-11-09T13:14:39;100412.28;;;8.97;100.00
59110;BME280;44895;47.438;18.978;2022-11-09T13:18:05;100409.03;;;9.00;100.00
59110;BME280;44895;47.438;18.978;2022-11-09T13:21:43;100400.34;;;8.93;100.00
59110;BME280;44895;47.438;18.978;2022-11-09T13:25:58;100401.94;;;9.14;100.00
59110;BME280;44895;47.438;18.978;2022-11-09T13:32:39;100401.44;;;9.07;100.00
59110;BME280;44895;47.438;18.978;2022-11-09T13:39:31;100398.97;;;9.16;100.00
59110;BME280;44895;47.438;18.978;2022-11-09T13:46:28;100395.13;;;9.27;100.00
59110;BME280;44895;47.438;18.978;2022-11-09T13:49:53;100396.28;;;9.11;100.00
59110;BME280;44895;47.438;18.978;2022-11-09T13:57:01;100399.81;;;9.01;100.00
59110;BME280;44895;47.438;18.978;2022-11-09T14:00:25;100395.72;;;9.09;100.00
59110;BME280;44895;47.438;18.978;2022-11-09T14:03:50;100388.41;;;9.14;100.00
59110;BME280;44895;47.438;18.978;2022-11-09T14:10:50;100396.84;;;8.92;100.00
59110;BME280;44895;47.438;18.978;2022-11-09T14:21:57;100405.50;;;9.05;100.00
59110;BME280;44895;47.438;18.978;2022-11-09T14:25:22;100394.56;;;9.30;100.00
59110;BME280;44895;47.438;18.978;2022-11-09T14:28:45;100394.59;;;9.25;100.00
59110;BME280;44895;47.438;18.978;2022-11-09T14:35:56;100395.19;;;9.02;100.00
59110;BME280;44895;47.438;18.978;2022-11-09T14:39:26;100392.22;;;9.03;100.00
59110;BME280;44895;47.438;18.978;2022-11-09T14:42:53;100395.47;;;9.05;100.00
59110;BME280;44895;47.438;18.978;2022-11-09T14:46:18;100396.28;;;9.06;100.00
59110;BME280;44895;47.438;18.978;2022-11-09T14:49:42;100403.63;;;8.95;100.00
59110;BME280;44895;47.438;18.978;2022-11-09T14:53:06;100400.59;;;9.17;100.00
59110;BME280;44895;47.438;18.978;2022-11-09T14:56:36;100404.16;;;9.02;100.00
59110;BME280;44895;47.438;18.978;2022-11-09T14:59:59;100417.72;;;8.97;100.00
59110;BME280;44895;47.438;18.978;2022-11-09T15:03:27;100402.81;;;8.79;100.00
59110;BME280;44895;47.438;18.978;2022-11-09T15:06:51;100411.19;;;9.03;100.00
59110;BME280;44895;47.438;18.978;2022-11-09T15:10:18;100403.88;;;9.04;100.00
59110;BME280;44895;47.438;18.978;2022-11-09T15:13:41;100407.94;;;9.01;100.00
59110;BME280;44895;47.438;18.978;2022-11-09T15:17:15;100406.84;;;9.02;100.00
59110;BME280;44895;47.438;18.978;2022-11-09T15:20:38;100409.63;;;8.87;100.00
59110;BME280;44895;47.438;18.978;2022-11-09T15:27:33;100395.50;;;8.90;100.00
59110;BME280;44895;47.438;18.978;2022-11-09T15:34:25;100404.13;;;9.07;100.00
59110;BME280;44895;47.438;18.978;2022-11-09T15:37:50;100392.00;;;8.89;100.00
59110;BME280;44895;47.438;18.978;2022-11-09T15:41:18;100390.88;;;9.01;100.00
59110;BME280;44895;47.438;18.978;2022-11-09T15:44:41;100393.28;;;9.07;100.00
59110;BME280;44895;47.438;18.978;2022-11-09T15:48:04;100402.22;;;9.08;100.00
59110;BME280;44895;47.438;18.978;2022-11-09T15:51:26;100400.09;;;8.94;100.00
59110;BME280;44895;47.438;18.978;2022-11-09T15:54:49;100405.78;;;8.88;100.00
59110;BME280;44895;47.438;18.978;2022-11-09T15:58:13;100402.56;;;8.80;100.00
59110;BME280;44895;47.438;18.978;2022-11-09T16:01:35;100404.41;;;8.95;100.00
59110;BME280;44895;47.438;18.978;2022-11-09T16:04:58;100407.97;;;8.91;100.00
59110;BME280;44895;47.438;18.978;2022-11-09T16:08:20;100405.75;;;9.13;100.00
59110;BME280;44895;47.438;18.978;2022-11-09T16:11:42;100406.25;;;9.16;100.00
59110;BME280;44895;47.438;18.978;2022-11-09T16:15:05;100412.81;;;8.94;100.00
59110;BME280;44895;47.438;18.978;2022-11-09T16:18:27;100405.78;;;9.03;100.00
59110;BME280;44895;47.438;18.978;2022-11-09T16:21:52;100405.50;;;9.00;100.00
59110;BME280;44895;47.438;18.978;2022-11-09T16:25:15;100400.81;;;9.21;100.00
59110;BME280;44895;47.438;18.978;2022-11-09T16:28:37;100403.28;;;9.12;100.00
59110;BME280;44895;47.438;18.978;2022-11-09T16:32:01;100411.69;;;9.10;100.00
59110;BME280;44895;47.438;18.978;2022-11-09T16:35:23;100406.84;;;9.02;100.00
59110;BME280;44895;47.438;18.978;2022-11-09T16:38:49;100418.25;;;8.89;100.00
59110;BME280;44895;47.438;18.978;2022-11-09T16:42:13;100408.72;;;9.07;100.00
59110;BME280;44895;47.438;18.978;2022-11-09T16:45:36;100412.50;;;9.16;100.00
59110;BME280;44895;47.438;18.978;2022-11-09T16:49:02;100407.09;;;9.16;100.00
59110;BME280;44895;47.438;18.978;2022-11-09T16:52:24;100408.69;;;9.22;100.00
59110;BME280;44895;47.438;18.978;2022-11-09T16:55:46;100403.53;;;9.21;100.00
59110;BME280;44895;47.438;18.978;2022-11-09T16:59:09;100407.34;;;9.09;100.00
59110;BME280;44895;47.438;18.978;2022-11-09T17:02:31;100410.63;;;9.11;100.00
59110;BME280;44895;47.438;18.978;2022-11-09T17:05:59;100408.41;;;9.29;100.00
59110;BME280;44895;47.438;18.978;2022-11-09T17:09:22;100415.19;;;9.21;100.00
59110;BME280;44895;47.438;18.978;2022-11-09T17:12:44;100412.50;;;9.16;100.00
59110;BME280;44895;47.438;18.978;2022-11-09T17:16:09;100403.50;;;9.26;100.00
59110;BME280;44895;47.438;18.978;2022-11-09T17:19:33;100407.00;;;9.37;100.00
59110;BME280;44895;47.438;18.978;2022-11-09T17:22:55;100415.69;;;9.39;100.00
59110;BME280;44895;47.438;18.978;2022-11-09T17:26:18;100415.16;;;9.32;100.00
59110;BME280;44895;47.438;18.978;2022-11-09T17:29:41;100412.69;;;9.40;100.00
59110;BME280;44895;47.438;18.978;2022-11-09T17:33:03;100419.22;;;9.34;100.00
59110;BME280;44895;47.438;18.978;2022-11-09T17:36:26;100419.50;;;9.33;100.00
59110;BME280;44895;47.438;18.978;2022-11-09T17:39:48;100414.38;;;9.21;100.00
59110;BME280;44895;47.438;18.978;2022-11-09T17:43:11;100419.19;;;9.39;100.00
59110;BME280;44895;47.438;18.978;2022-11-09T17:46:33;100410.81;;;9.30;100.00
59110;BME280;44895;47.438;18.978;2022-11-09T17:49:55;100416.28;;;9.20;100.00
59110;BME280;44895;47.438;18.978;2022-11-09T17:53:17;100410.25;;;9.39;100.00
59110;BME280;44895;47.438;18.978;2022-11-09T17:56:41;100408.34;;;9.39;100.00
59110;BME280;44895;47.438;18.978;2022-11-09T18:00:04;100410.50;;;9.37;100.00
59110;BME280;44895;47.438;18.978;2022-11-09T18:03:34;100400.81;;;9.31;100.00
59110;BME280;44895;47.438;18.978;2022-11-09T18:06:58;100407.31;;;9.30;100.00
59110;BME280;44895;47.438;18.978;2022-11-09T18:10:21;100408.38;;;9.34;100.00
59110;BME280;44895;47.438;18.978;2022-11-09T18:13:43;100404.47;;;9.56;100.00